AKDT,Max TemperatureF,Mean TemperatureF,Min TemperatureF,Max Dew PointF,MeanDew PointF,Min DewpointF,Max Humidity, Mean Humidity, Min Humidity, Max Sea Level PressureIn, Mean Sea Level PressureIn, Min Sea Level PressureIn, Max VisibilityMiles, Mean VisibilityMiles, Min VisibilityMiles, Max Wind SpeedMPH, Mean Wind SpeedMPH, Max Gust SpeedMPH,PrecipitationIn, CloudCover, Events, WindDirDegrees
2013-4-1,39,33,27,28,21,19,82,69,56,30.10,30.01,29.96,10,10,10,6,3,,0.00,6,,279
2013-4-2,41,32,22,24,21,18,88,72,56,30.16,30.10,30.01,10,10,10,5,1,28,0.00,4,,333
2013-4-3,44,37,30,26,22,19,72,58,44,30.24,30.21,30.16,10,10,10,12,4,,0.00,5,,190
2013-4-4,41,33,24,22,13,4,69,58,47,30.19,29.99,29.75,10,10,10,10,6,22,0.00,1,,10
2013-4-5,36,28,19,25,12,1,50,45,39,29.75,29.58,29.48,10,9,2,14,7,,0.00,3,Snow,6
2013-4-6,24,20,16,23,15,5,80,63,45,29.51,29.47,29.44,10,3,0,10,7,,0.29,8,Fog-Snow,16
2013-4-7,28,24,20,23,10,5,68,57,46,29.78,29.66,29.50,10,10,5,12,9,33,T,6,Snow,237
2013-4-8,18,15,11,16,9,-3,67,58,49,29.79,29.53,29.29,10,3,0,14,9,,0.12,8,Fog-Snow,10
2013-4-9,24,19,14,13,7,-1,80,63,45,29.46,29.21,29.09,10,8,1,9,6,,0.02,8,Snow,9
2013-4-10,23,18,12,12,5,-5,73,59,44,29.96,29.78,29.50,10,6,0,10,6,,0.01,7,Snow,244
2013-4-11,25,16,7,16,5,0,76,63,49,30.19,30.04,29.95,10,9,2,9,6,,0.00,5,Snow,32
2013-4-12,28,19,10,6,0,-6,51,42,32,30.12,30.09,30.04,10,10,10,12,8,21,0.00,1,,358
2013-4-13,34,24,13,13,4,-1,49,41,33,30.41,30.27,30.14,10,10,10,14,8,22,0.00,1,,336
2013-4-14,37,26,15,14,10,3,80,56,31,30.53,30.47,30.42,10,10,10,7,2,,0.00,2,,241
2013-4-15,39,30,21,19,14,8,68,53,38,30.43,30.35,30.29,10,10,10,9,5,,0.00,4,,353
2013-4-16,36,29,21,17,10,6,55,46,36,30.29,30.18,30.09,10,10,10,14,9,,0.00,1,,327
2013-4-17,34,26,17,19,11,2,63,51,38,30.16,30.13,30.10,10,10,10,9,5,,0.00,2,,298
2013-4-18,38,29,19,21,13,6,75,57,38,30.19,30.15,30.11,10,10,10,8,4,,0.00,0,,310
2013-4-19,43,32,21,23,14,8,78,59,40,30.32,30.26,30.15,10,10,10,8,4,,0.00,0,,311
2013-4-20,47,37,26,23,19,17,69,54,38,30.41,30.38,30.32,10,10,10,13,5,31,0.00,0,,137
2013-4-21,42,34,26,29,22,16,75,55,34,30.40,30.37,30.35,10,10,10,9,3,,0.00,5,,129
2013-4-22,49,38,26,27,24,21,92,69,45,30.51,30.47,30.40,10,10,10,10,3,,0.00,3,,353
2013-4-23,40,36,31,37,30,21,89,71,52,30.49,30.44,30.35,10,6,1,7,5,,0.21,7,Fog-Rain-Snow,30
2013-4-24,41,37,33,35,33,27,92,86,79,30.33,30.10,29.84,10,7,0,8,5,24,T,8,Fog-Rain,220
2013-4-25,43,38,32,28,15,9,64,47,30,29.84,29.75,29.68,10,10,10,25,18,39,0.00,1,,356
2013-4-26,41,33,25,22,14,8,50,43,35,29.74,29.61,29.48,10,10,10,21,13,31,0.00,3,,305
2013-4-27,44,36,28,19,15,10,59,47,34,29.90,29.70,29.52,10,10,10,17,11,24,0.00,2,,360
2013-4-28,43,35,26,20,12,7,50,39,27,30.15,30.04,29.91,10,10,10,15,12,,0.00,0,,343
2013-4-29,43,34,24,22,18,13,68,53,38,30.19,30.15,30.09,10,10,10,7,2,,0.00,4,,331
2013-4-30,40,38,36,31,27,22,59,54,48,30.09,29.94,29.82,10,9,2,14,11,22,T,8,Snow,162